Terminal Aerodrome Forecast
Issued by NWS Buffalo, NY

Home | Current Version | Previous Version | Text Only | Print | Product List | Glossary On
Versions: 1 2 3 4 5 6 7 8 9 10 11 12 13 14 15 16 17 18 19 20 21 22 23 24
000
FTUS41 KBUF 022300
TAFROC
TAF
KROC 022339Z 0300/0324 29010KT P6SM FEW035
     FM030100 29008KT P6SM FEW250
     FM031400 16006KT P6SM BKN120
     FM031800 15010G16KT P6SM OVC040
     FM032000 15011G19KT 2SM -SN OVC035
     FM032300 17014G29KT 3SM -SNPL OVC035=

USA.gov is the U.S. government's official web portal to all federal, state and local government web resources and services.